Time;durP1;ratioP1;P1;durP2;ratioP2;P2;SDS_P1;SDS_P2;PMS_P1;PMS_P2;Temp;Humidity;BMP_temperature;BMP_pressure;BME280_temperature;BME280_humidity;BME280_pressure;Samples;Min_cycle;Max_cycle;Signal;HPM_P1;HPM_P2
2023/04/09 20:47:06;;;;;;;;;;;;;;;8.24;68.44;99610.38;5157476;23;20293;-76
2023/04/09 20:49:31;;;;;;;;;;;;;;;8.28;68.56;99612.44;4995526;28;19925;-76
2023/04/09 20:51:57;;;;;;;;;;;;;;;8.32;69.05;99613.63;5002044;28;19932;-76
2023/04/09 20:54:22;;;;;;;;;;;;;;;8.21;69.80;99618.81;5008639;28;19933;-77
2023/04/09 20:56:47;;;;;;;;;;;;;;;8.27;68.94;99625.97;4999102;28;19951;-76
2023/04/09 20:59:13;;;;;;;;;;;;;;;8.38;68.64;99617.28;5003583;28;19932;-76
2023/04/09 21:01:39;;;;;;;;;;;;;;;8.38;68.25;99619.13;4995552;28;20067;-77
2023/04/09 21:04:04;;;;;;;;;;;;;;;8.37;68.37;99614.84;4998957;28;19917;-77
2023/04/09 21:06:29;;;;;;;;;;;;;;;8.37;69.09;99620.97;4998828;28;19930;-76
2023/04/09 21:08:54;;;;;;;;;;;;;;;8.30;68.39;99614.88;5001616;28;19952;-75
2023/04/09 21:11:20;;;;;;;;;;;;;;;8.17;68.41;99615.75;5003848;28;19971;-77
2023/04/09 21:13:45;;;;;;;;;;;;;;;8.17;68.80;99612.28;5004759;28;19921;-76
2023/04/09 21:16:10;;;;;;;;;;;;;;;8.14;69.58;99621.50;4998918;28;20420;-76
2023/04/09 21:18:35;;;;;;;;;;;;;;;8.30;68.64;99614.88;5006556;28;19929;-76
2023/04/09 21:21:04;;;;;;;;;;;;;;;8.23;68.62;99612.22;5006015;28;19921;-75
2023/04/09 21:23:29;;;;;;;;;;;;;;;8.14;68.70;99610.06;4984143;28;19917;-76
2023/04/09 21:25:55;;;;;;;;;;;;;;;8.15;68.54;99611.66;5004357;28;19928;-75
2023/04/09 21:28:20;;;;;;;;;;;;;;;8.18;68.98;99608.59;5002170;28;19949;-78
2023/04/09 21:30:45;;;;;;;;;;;;;;;8.22;69.04;99601.81;4989453;28;19918;-76
2023/04/09 21:33:11;;;;;;;;;;;;;;;8.22;68.19;99601.81;5003367;28;19922;-76
2023/04/09 21:35:36;;;;;;;;;;;;;;;8.09;69.33;99605.38;5008469;28;19921;-76
2023/04/09 21:38:02;;;;;;;;;;;;;;;8.14;68.54;99610.88;5001989;28;19924;-76
2023/04/09 21:40:27;;;;;;;;;;;;;;;8.11;68.12;99608.63;5005895;28;19917;-76
2023/04/09 21:42:53;;;;;;;;;;;;;;;8.05;68.09;99612.16;5001964;28;19945;-76
2023/04/09 21:45:18;;;;;;;;;;;;;;;8.06;68.66;99607.66;5005991;28;20298;-76
2023/04/09 21:47:44;;;;;;;;;;;;;;;7.58;69.66;99612.56;5003779;28;19984;-75
2023/04/09 21:50:09;;;;;;;;;;;;;;;7.95;69.15;99608.34;5004580;28;19941;-76
2023/04/09 21:52:36;;;;;;;;;;;;;;;7.94;68.89;99610.16;4982346;28;20137;-78
2023/04/09 21:55:02;;;;;;;;;;;;;;;7.89;69.25;99615.28;5001122;28;19949;-76
2023/04/09 21:57:27;;;;;;;;;;;;;;;7.98;69.02;99626.50;4983694;28;19921;-78
2023/04/09 21:59:52;;;;;;;;;;;;;;;7.93;69.21;99624.47;4997630;28;19932;-77
2023/04/09 22:02:18;;;;;;;;;;;;;;;7.91;68.87;99623.88;5009296;28;19925;-77
2023/04/09 22:04:43;;;;;;;;;;;;;;;7.93;69.50;99618.38;4998130;28;20449;-76
2023/04/09 22:07:09;;;;;;;;;;;;;;;7.95;69.00;99611.00;5010417;28;19927;-76
2023/04/09 22:09:34;;;;;;;;;;;;;;;7.93;68.72;99619.16;5021534;28;20390;-76
2023/04/09 22:12:01;;;;;;;;;;;;;;;7.96;68.81;99617.91;4993363;28;19964;-76
2023/04/09 22:14:28;;;;;;;;;;;;;;;7.95;68.74;99611.78;5018138;28;20307;-76
2023/04/09 22:16:56;;;;;;;;;;;;;;;7.88;68.68;99613.69;4998939;28;19929;-77
2023/04/09 22:19:21;;;;;;;;;;;;;;;7.89;68.51;99612.63;5003772;28;20015;-76
2023/04/09 22:21:49;;;;;;;;;;;;;;;7.81;68.52;99607.56;5008291;28;20352;-76
2023/04/09 22:24:14;;;;;;;;;;;;;;;7.76;68.78;99611.88;5007665;28;20378;-76
2023/04/09 22:26:45;;;;;;;;;;;;;;;7.74;68.83;99611.28;5011415;28;19968;-77
2023/04/09 22:29:10;;;;;;;;;;;;;;;7.76;69.26;99611.88;5004313;28;19917;-78
2023/04/09 22:31:35;;;;;;;;;;;;;;;7.81;69.29;99617.38;5006794;28;20359;-77
2023/04/09 22:34:01;;;;;;;;;;;;;;;7.82;69.49;99617.16;5006781;28;19976;-77
2023/04/09 22:36:27;;;;;;;;;;;;;;;7.73;68.71;99621.13;5008413;28;19929;-77
2023/04/09 22:38:52;;;;;;;;;;;;;;;7.75;69.53;99621.72;5002484;28;19926;-76
2023/04/09 22:41:17;;;;;;;;;;;;;;;7.72;69.20;99623.97;5007011;28;19925;-76
2023/04/09 22:43:43;;;;;;;;;;;;;;;7.69;69.03;99625.19;4994554;28;19922;-75
2023/04/09 22:46:08;;;;;;;;;;;;;;;7.65;69.09;99618.69;5005910;28;19937;-77
2023/04/09 22:48:33;;;;;;;;;;;;;;;7.62;68.89;99627.09;5009976;28;19972;-76
2023/04/09 22:50:59;;;;;;;;;;;;;;;7.60;68.98;99630.97;5001862;28;19980;-76
2023/04/09 22:53:24;;;;;;;;;;;;;;;7.52;69.60;99638.16;4991562;28;19957;-76
2023/04/09 22:55:50;;;;;;;;;;;;;;;7.49;69.81;99635.09;5007133;28;19922;-75
2023/04/09 22:58:16;;;;;;;;;;;;;;;7.53;69.57;99620.38;5007196;28;19963;-76
2023/04/09 23:00:41;;;;;;;;;;;;;;;7.53;69.48;99623.03;5007970;28;19922;-75
2023/04/09 23:03:07;;;;;;;;;;;;;;;7.51;68.89;99617.91;5017815;28;19931;-75
2023/04/09 23:05:32;;;;;;;;;;;;;;;7.60;69.50;99620.34;5013248;28;19917;-76
2023/04/09 23:07:57;;;;;;;;;;;;;;;7.58;69.17;99624.00;5012347;28;19979;-76
2023/04/09 23:10:22;;;;;;;;;;;;;;;7.52;68.86;99626.69;4986464;28;19926;-75
2023/04/09 23:12:48;;;;;;;;;;;;;;;7.53;69.14;99626.47;5006127;28;20398;-77
2023/04/09 23:15:13;;;;;;;;;;;;;;;7.48;68.71;99618.34;5001906;28;19965;-77
2023/04/09 23:17:40;;;;;;;;;;;;;;;7.39;69.55;99616.94;5005629;28;19922;-75
2023/04/09 23:20:06;;;;;;;;;;;;;;;7.45;68.93;99624.06;5009113;28;19928;-76
2023/04/09 23:22:32;;;;;;;;;;;;;;;7.41;69.09;99622.03;5002321;28;19978;-77
2023/04/09 23:24:57;;;;;;;;;;;;;;;7.37;69.48;99611.03;5005354;28;20019;-76
2023/04/09 23:27:27;;;;;;;;;;;;;;;7.35;69.92;99614.91;5004270;28;19932;-76
2023/04/09 23:29:52;;;;;;;;;;;;;;;7.35;69.40;99614.91;4980457;28;19951;-76
2023/04/09 23:32:17;;;;;;;;;;;;;;;7.32;69.51;99617.97;5005925;28;20399;-76
2023/04/09 23:34:42;;;;;;;;;;;;;;;7.17;69.87;99591.66;5004352;28;19926;-76
2023/04/09 23:37:09;;;;;;;;;;;;;;;7.29;69.52;99613.09;5008465;28;19925;-76
2023/04/09 23:39:34;;;;;;;;;;;;;;;7.29;69.57;99605.94;5007450;28;19922;-76
2023/04/09 23:41:59;;;;;;;;;;;;;;;7.27;69.54;99607.19;5005996;28;20294;-75
2023/04/09 23:44:25;;;;;;;;;;;;;;;7.21;69.54;99605.31;5010416;28;20298;-76
2023/04/09 23:46:50;;;;;;;;;;;;;;;7.18;69.12;99598.63;5002262;28;19975;-76
2023/04/09 23:49:15;;;;;;;;;;;;;;;7.16;69.94;99603.31;5004617;28;20354;-76
2023/04/09 23:51:41;;;;;;;;;;;;;;;7.17;69.00;99591.66;5006802;28;20394;-75
2023/04/09 23:54:06;;;;;;;;;;;;;;;7.15;69.21;99596.38;5005345;28;20013;-76
2023/04/09 23:56:31;;;;;;;;;;;;;;;7.10;69.12;99590.06;5004406;28;19929;-76
2023/04/09 23:58:56;;;;;;;;;;;;;;;7.07;69.60;99591.28;5001962;28;19929;-77
